createdAt,value
2023-02-21T00:02:48.729Z,2.60
2023-02-21T00:05:34.264Z,2.10
2023-02-21T00:08:19.800Z,5.20
2023-02-21T00:11:04.871Z,2.00
2023-02-21T00:13:49.864Z,2.20
2023-02-21T00:16:35.715Z,2.50
2023-02-21T00:19:22.877Z,2.70
2023-02-21T00:22:08.282Z,2.40
2023-02-21T00:24:53.711Z,2.90
2023-02-21T00:27:39.213Z,2.50
2023-02-21T00:30:25.221Z,3.40
2023-02-21T00:33:10.910Z,3.00
2023-02-21T00:35:56.281Z,2.80
2023-02-21T00:38:41.896Z,4.00
2023-02-21T00:41:27.446Z,3.10
2023-02-21T00:44:12.964Z,3.10
2023-02-21T00:47:00.334Z,3.20
2023-02-21T00:49:45.599Z,2.50
2023-02-21T00:52:30.485Z,3.20
2023-02-21T00:55:15.334Z,3.40
2023-02-21T00:58:00.486Z,4.20
2023-02-21T01:00:45.538Z,3.00
2023-02-21T01:03:31.070Z,2.90
2023-02-21T01:06:16.760Z,4.60
2023-02-21T01:09:03.550Z,4.00
2023-02-21T01:11:49.690Z,3.60
2023-02-21T01:14:35.452Z,3.60
2023-02-21T01:17:20.655Z,3.90
2023-02-21T01:20:05.653Z,3.70
2023-02-21T01:22:50.936Z,3.60
2023-02-21T01:25:36.359Z,3.90
2023-02-21T01:28:21.783Z,3.60
2023-02-21T01:31:07.401Z,4.00
2023-02-21T01:33:57.650Z,4.00
2023-02-21T01:36:43.591Z,4.10
2023-02-21T01:39:29.639Z,4.00
2023-02-21T01:42:15.495Z,3.80
2023-02-21T01:45:05.517Z,3.40
2023-02-21T01:47:51.367Z,4.10
2023-02-21T01:50:43.062Z,3.70
2023-02-21T01:53:35.076Z,3.60
2023-02-21T01:56:20.683Z,3.80
2023-02-21T01:59:07.708Z,3.60
2023-02-21T02:02:08.551Z,3.30
2023-02-21T02:04:53.642Z,4.00
2023-02-21T02:07:38.886Z,3.10
2023-02-21T02:10:25.466Z,3.40
2023-02-21T02:12:51.875Z,3.70
2023-02-21T02:15:27.799Z,3.00
2023-02-21T02:18:06.561Z,3.70
2023-02-21T02:23:33.623Z,3.20
2023-02-21T02:26:06.130Z,2.90
2023-02-21T02:29:00.790Z,3.70
2023-02-21T02:31:45.886Z,3.50
2023-02-21T02:34:31.432Z,3.10
2023-02-21T02:37:10.304Z,3.20
2023-02-21T02:39:45.870Z,3.20
2023-02-21T02:42:34.246Z,2.70
2023-02-21T02:45:05.549Z,3.80
2023-02-21T02:47:35.181Z,3.00
2023-02-21T02:50:03.722Z,3.40
2023-02-21T02:52:30.162Z,2.80
2023-02-21T02:55:02.586Z,2.60
2023-02-21T02:57:37.559Z,3.00
2023-02-21T03:00:05.744Z,2.80
2023-02-21T03:02:52.482Z,3.00
2023-02-21T03:05:34.720Z,3.40
2023-02-21T03:08:29.568Z,3.30
2023-02-21T03:11:16.683Z,2.70
2023-02-21T03:13:48.659Z,2.30
2023-02-21T03:16:33.659Z,2.70
2023-02-21T03:19:22.753Z,3.00
2023-02-21T03:21:50.490Z,2.10
2023-02-21T03:24:18.817Z,2.60
2023-02-21T03:26:47.939Z,3.80
2023-02-21T03:29:16.218Z,3.20
2023-02-21T03:31:46.387Z,2.90
2023-02-21T03:34:13.545Z,2.40
2023-02-21T03:36:40.209Z,2.50
2023-02-21T03:41:33.540Z,2.50
2023-02-21T03:44:00.036Z,2.40
2023-02-21T03:46:26.794Z,2.60
2023-02-21T03:48:53.323Z,2.50
2023-02-21T03:51:20.749Z,3.20
2023-02-21T03:53:47.168Z,3.00
2023-02-21T03:56:13.747Z,2.60
2023-02-21T03:58:40.194Z,2.80
2023-02-21T04:01:06.690Z,3.00
2023-02-21T04:03:33.223Z,3.20
2023-02-21T04:06:03.645Z,3.30
2023-02-21T04:08:30.217Z,3.00
2023-02-21T04:10:56.720Z,3.70
2023-02-21T04:15:50.915Z,3.80
2023-02-21T04:18:17.352Z,3.20
2023-02-21T04:20:45.858Z,3.30
2023-02-21T04:23:17.113Z,3.60
2023-02-21T04:25:43.865Z,3.70
2023-02-21T04:30:36.849Z,4.00
2023-02-21T04:33:04.016Z,3.10
2023-02-21T04:35:30.669Z,3.60
2023-02-21T04:40:24.152Z,4.00
2023-02-21T04:42:50.852Z,3.70
2023-02-21T04:47:43.888Z,3.50
2023-02-21T04:52:40.399Z,3.40
2023-02-21T04:55:08.288Z,4.30
2023-02-21T04:57:35.059Z,4.30
2023-02-21T05:02:28.222Z,4.10
2023-02-21T05:04:54.800Z,4.10
2023-02-21T05:09:47.804Z,4.40
2023-02-21T05:12:14.886Z,5.10
2023-02-21T05:14:41.543Z,5.10
2023-02-21T05:17:08.749Z,4.90
2023-02-21T05:19:35.567Z,4.90
2023-02-21T05:22:03.474Z,4.50
2023-02-21T05:24:30.572Z,5.20
2023-02-21T05:26:58.032Z,5.50
2023-02-21T05:29:25.184Z,5.00
2023-02-21T05:31:51.682Z,5.50
2023-02-21T05:34:19.292Z,4.60
2023-02-21T05:36:46.042Z,5.40
2023-02-21T05:39:12.624Z,5.80
2023-02-21T05:44:06.511Z,4.60
2023-02-21T05:46:34.554Z,5.00
2023-02-21T05:49:03.254Z,5.20
2023-02-21T05:51:40.720Z,5.00
2023-02-21T05:54:08.823Z,5.20
2023-02-21T05:56:42.876Z,5.40
2023-02-21T05:59:09.854Z,6.30
2023-02-21T06:01:36.295Z,6.30
2023-02-21T06:04:03.456Z,6.00
2023-02-21T06:06:30.290Z,5.60
2023-02-21T06:08:56.753Z,5.00
2023-02-21T06:11:26.460Z,5.80
2023-02-21T06:13:54.123Z,4.90
2023-02-21T06:16:21.262Z,6.10
2023-02-21T06:18:54.648Z,6.20
2023-02-21T06:21:21.301Z,6.10
2023-02-21T06:23:48.023Z,5.50
2023-02-21T06:26:15.206Z,5.60
2023-02-21T06:28:41.897Z,5.80
2023-02-21T06:33:35.128Z,5.30
2023-02-21T06:36:06.698Z,6.50
2023-02-21T06:38:34.018Z,5.60
2023-02-21T06:41:05.334Z,7.00
2023-02-21T06:43:31.887Z,6.70
2023-02-21T06:45:58.479Z,6.20
2023-02-21T06:48:25.214Z,6.30
2023-02-21T06:50:51.926Z,6.70
2023-02-21T06:53:18.398Z,6.70
2023-02-21T06:55:44.959Z,6.70
2023-02-21T06:58:11.651Z,7.10
2023-02-21T07:03:04.608Z,6.70
2023-02-21T07:05:34.150Z,6.60
2023-02-21T07:08:01.807Z,6.60
2023-02-21T07:10:29.356Z,7.50
2023-02-21T07:12:56.239Z,7.60
2023-02-21T07:15:22.804Z,7.40
2023-02-21T07:17:49.778Z,6.90
2023-02-21T07:20:16.882Z,7.10
2023-02-21T07:22:43.538Z,6.90
2023-02-21T07:27:40.121Z,6.50
2023-02-21T07:30:07.216Z,8.00
2023-02-21T07:32:33.739Z,6.00
2023-02-21T07:35:00.327Z,7.10
2023-02-21T07:37:27.029Z,6.20
2023-02-21T07:39:53.607Z,7.00
2023-02-21T07:42:20.253Z,7.20
2023-02-21T07:47:14.249Z,6.00
2023-02-21T07:49:40.864Z,6.90
2023-02-21T07:54:34.501Z,6.20
2023-02-21T07:57:01.291Z,6.40
2023-02-21T07:59:28.340Z,5.80
2023-02-21T08:01:55.266Z,6.20
2023-02-21T08:04:23.523Z,5.70
2023-02-21T08:06:50.097Z,5.20
2023-02-21T08:11:43.878Z,4.70
2023-02-21T08:14:10.492Z,5.50
2023-02-21T08:16:37.559Z,4.90
2023-02-21T08:19:05.081Z,5.20
2023-02-21T08:21:31.651Z,5.10
2023-02-21T08:23:58.664Z,5.10
2023-02-21T08:26:25.652Z,4.40
2023-02-21T08:28:52.675Z,4.30
2023-02-21T08:31:19.986Z,4.40
2023-02-21T08:33:46.561Z,5.00
2023-02-21T08:36:13.460Z,4.90
2023-02-21T08:38:40.670Z,4.60
2023-02-21T08:41:07.486Z,4.20
2023-02-21T08:43:34.166Z,5.00
2023-02-21T08:48:30.003Z,4.10
2023-02-21T08:50:56.854Z,4.30
2023-02-21T08:53:23.756Z,5.50
2023-02-21T08:58:16.919Z,4.40
2023-02-21T09:00:44.044Z,5.10
2023-02-21T09:03:10.568Z,4.60
2023-02-21T09:05:38.699Z,5.20
2023-02-21T09:08:09.488Z,4.70
2023-02-21T09:10:36.080Z,4.50
2023-02-21T09:15:30.076Z,3.40
2023-02-21T09:20:25.352Z,4.20
2023-02-21T09:22:52.243Z,3.80
2023-02-21T09:25:23.892Z,3.70
2023-02-21T09:27:54.078Z,4.00
2023-02-21T09:30:25.884Z,3.60
2023-02-21T09:32:52.525Z,3.10
2023-02-21T09:37:46.774Z,3.00
2023-02-21T09:40:21.397Z,2.50
2023-02-21T09:42:50.665Z,2.80
2023-02-21T09:45:19.203Z,2.50
2023-02-21T09:47:49.324Z,2.20
2023-02-21T09:50:19.167Z,2.10
2023-02-21T09:52:46.591Z,2.00
2023-02-21T09:55:35.499Z,2.20
2023-02-21T09:58:02.295Z,2.40
2023-02-21T10:00:37.163Z,1.60
2023-02-21T10:03:42.455Z,2.10
2023-02-21T10:06:27.726Z,1.90
2023-02-21T10:09:23.275Z,1.80
2023-02-21T10:12:08.280Z,1.90
2023-02-21T10:14:44.013Z,2.00
2023-02-21T10:17:18.481Z,1.70
2023-02-21T10:19:49.574Z,2.30
2023-02-21T10:22:26.038Z,2.10
2023-02-21T10:24:53.636Z,2.00
2023-02-21T10:27:23.320Z,2.00
2023-02-21T10:30:05.300Z,2.50
2023-02-21T10:32:32.311Z,2.10
2023-02-21T10:34:59.049Z,1.60
2023-02-21T10:37:34.246Z,2.00
2023-02-21T10:40:08.117Z,2.00
2023-02-21T10:42:54.884Z,1.90
2023-02-21T10:45:27.298Z,1.70
2023-02-21T10:48:01.452Z,2.00
2023-02-21T10:50:37.444Z,2.00
2023-02-21T10:53:04.350Z,1.90
2023-02-21T10:55:33.462Z,2.20
2023-02-21T10:58:09.372Z,1.70
2023-02-21T11:00:39.465Z,1.80
2023-02-21T11:03:22.406Z,1.90
2023-02-21T11:05:52.685Z,2.00
2023-02-21T11:08:43.264Z,2.00
2023-02-21T11:11:10.583Z,2.30
2023-02-21T11:13:37.332Z,2.20
2023-02-21T11:16:32.615Z,1.90
2023-02-21T11:19:06.644Z,1.90
2023-02-21T11:21:33.726Z,2.30
2023-02-21T11:24:03.156Z,3.00
2023-02-21T11:26:35.559Z,1.90
2023-02-21T11:29:09.196Z,2.30
2023-02-21T11:31:35.913Z,1.90
2023-02-21T11:34:05.672Z,2.10
2023-02-21T11:36:35.143Z,2.00
2023-02-21T11:39:06.940Z,2.20
2023-02-21T11:41:48.028Z,2.60
2023-02-21T11:44:30.028Z,1.90
2023-02-21T11:47:18.556Z,3.10
2023-02-21T11:50:07.301Z,2.40
2023-02-21T11:52:33.902Z,2.00
2023-02-21T11:55:00.609Z,2.00
2023-02-21T11:57:41.682Z,2.50
2023-02-21T12:00:39.935Z,2.60
2023-02-21T12:03:21.961Z,2.20
2023-02-21T12:06:00.585Z,2.00
2023-02-21T12:08:38.050Z,2.10
2023-02-21T12:11:11.532Z,2.10
2023-02-21T12:13:57.859Z,2.30
2023-02-21T12:16:42.620Z,1.90
2023-02-21T12:19:18.873Z,2.40
2023-02-21T12:22:16.450Z,2.10
2023-02-21T12:24:58.445Z,2.40
2023-02-21T12:28:03.628Z,1.80
2023-02-21T12:30:44.948Z,2.10
2023-02-21T12:33:44.412Z,1.90
2023-02-21T12:36:20.035Z,1.60
2023-02-21T12:39:00.041Z,2.00
2023-02-21T12:41:29.545Z,2.30
2023-02-21T12:44:21.713Z,1.90
2023-02-21T12:46:58.430Z,1.40
2023-02-21T12:49:44.589Z,1.60
2023-02-21T12:52:34.449Z,2.00
2023-02-21T12:55:13.731Z,2.00
2023-02-21T12:57:46.343Z,2.00
2023-02-21T13:00:31.939Z,1.80
2023-02-21T13:02:58.765Z,1.80
2023-02-21T13:05:41.939Z,1.30
2023-02-21T13:08:26.173Z,1.70
2023-02-21T13:11:05.516Z,1.50
2023-02-21T13:13:33.087Z,1.90
2023-02-21T13:16:04.067Z,1.50
2023-02-21T13:18:40.552Z,1.90
2023-02-21T13:21:45.272Z,1.50
2023-02-21T13:24:31.905Z,2.00
2023-02-21T13:27:01.577Z,2.00
2023-02-21T13:29:31.336Z,1.80
2023-02-21T13:32:02.262Z,1.60
2023-02-21T13:34:38.240Z,1.60
2023-02-21T13:37:07.309Z,1.50
2023-02-21T13:39:37.926Z,1.40
2023-02-21T13:42:10.401Z,1.30
2023-02-21T13:44:44.192Z,1.30
2023-02-21T13:47:16.370Z,1.00
2023-02-21T13:49:46.987Z,1.40
2023-02-21T13:52:13.512Z,1.60
2023-02-21T13:55:15.290Z,1.60
2023-02-21T13:57:43.206Z,1.40
2023-02-21T14:00:25.133Z,1.50
2023-02-21T14:03:00.632Z,1.20
2023-02-21T14:05:49.692Z,1.40
2023-02-21T14:08:37.505Z,1.20
2023-02-21T14:11:06.968Z,1.20
2023-02-21T14:13:55.725Z,1.00
2023-02-21T14:16:30.915Z,1.60
2023-02-21T14:19:06.926Z,1.20
2023-02-21T14:21:45.337Z,2.20
2023-02-21T14:24:26.478Z,1.10
2023-02-21T14:27:01.876Z,1.40
2023-02-21T14:29:34.561Z,1.80
2023-02-21T14:32:04.188Z,1.50
2023-02-21T14:34:46.613Z,1.60
2023-02-21T14:37:18.944Z,1.60
2023-02-21T14:39:52.150Z,1.50
2023-02-21T14:43:01.897Z,1.70
2023-02-21T14:45:40.889Z,1.60
2023-02-21T14:48:37.206Z,1.60
2023-02-21T14:51:09.848Z,1.40
2023-02-21T14:53:56.730Z,2.00
2023-02-21T14:56:46.852Z,2.40
2023-02-21T14:59:31.831Z,1.20
2023-02-21T15:01:58.719Z,1.60
2023-02-21T15:04:28.322Z,2.50
2023-02-21T15:07:27.826Z,1.60
2023-02-21T15:10:27.919Z,1.80
2023-02-21T15:12:58.402Z,1.70
2023-02-21T15:15:31.697Z,1.60
2023-02-21T15:18:05.621Z,1.20
2023-02-21T15:20:34.706Z,1.30
2023-02-21T15:23:02.729Z,1.70
2023-02-21T15:25:29.324Z,1.80
2023-02-21T15:30:27.938Z,1.90
2023-02-21T15:33:18.506Z,1.60
2023-02-21T15:35:57.207Z,1.20
2023-02-21T15:38:32.232Z,1.50
2023-02-21T15:41:06.506Z,1.60
2023-02-21T15:43:38.965Z,1.40
2023-02-21T15:46:08.200Z,1.40
2023-02-21T15:48:35.239Z,1.60
2023-02-21T15:51:04.420Z,1.90
2023-02-21T15:53:31.885Z,1.50
2023-02-21T15:56:20.803Z,1.90
2023-02-21T15:59:06.396Z,1.80
2023-02-21T16:01:33.214Z,1.30
2023-02-21T16:04:21.554Z,1.30
2023-02-21T16:06:53.875Z,1.50
2023-02-21T16:09:27.510Z,1.30
2023-02-21T16:12:18.548Z,1.40
2023-02-21T16:14:56.094Z,1.20
2023-02-21T16:17:25.615Z,1.60
2023-02-21T16:20:01.795Z,1.20
2023-02-21T16:22:43.089Z,1.30
2023-02-21T16:25:24.164Z,1.50
2023-02-21T16:27:56.955Z,1.60
2023-02-21T16:30:35.111Z,1.50
2023-02-21T16:33:04.188Z,1.80
2023-02-21T16:35:32.298Z,2.00
2023-02-21T16:38:00.100Z,2.10
2023-02-21T16:40:29.577Z,2.30
2023-02-21T16:42:57.196Z,2.60
2023-02-21T16:45:24.581Z,2.70
2023-02-21T16:47:56.867Z,2.90
2023-02-21T16:50:32.022Z,2.90
2023-02-21T16:52:59.753Z,2.40
2023-02-21T16:55:27.575Z,2.40
2023-02-21T16:57:57.968Z,3.00
2023-02-21T17:00:24.484Z,2.40
2023-02-21T17:02:52.593Z,2.60
2023-02-21T17:05:20.799Z,3.00
2023-02-21T17:07:52.354Z,3.00
2023-02-21T17:10:20.072Z,2.30
2023-02-21T17:12:47.495Z,3.10
2023-02-21T17:15:14.004Z,2.20
2023-02-21T17:17:41.812Z,2.40
2023-02-21T17:20:16.047Z,2.40
2023-02-21T17:22:42.774Z,2.30
2023-02-21T17:25:10.069Z,2.70
2023-02-21T17:27:36.656Z,2.10
2023-02-21T17:30:05.541Z,2.20
2023-02-21T17:32:32.265Z,2.50
2023-02-21T17:37:25.774Z,2.20
2023-02-21T17:39:54.459Z,2.60
2023-02-21T17:42:21.888Z,2.40
2023-02-21T17:44:51.369Z,2.50
2023-02-21T17:47:19.287Z,2.60
2023-02-21T17:49:48.174Z,2.60
2023-02-21T17:52:15.252Z,2.50
2023-02-21T17:54:42.244Z,2.80
2023-02-21T17:57:09.376Z,3.00
2023-02-21T17:59:36.830Z,3.30
2023-02-21T18:02:04.800Z,3.20
2023-02-21T18:04:32.057Z,3.20
2023-02-21T18:06:59.377Z,3.40
2023-02-21T18:09:26.108Z,3.60
2023-02-21T18:11:55.105Z,3.10
2023-02-21T18:14:22.729Z,3.10
2023-02-21T18:16:49.290Z,3.00
2023-02-21T18:21:44.928Z,3.20
2023-02-21T18:24:12.701Z,3.80
2023-02-21T18:26:39.537Z,4.00
2023-02-21T18:29:06.749Z,4.10
2023-02-21T18:31:36.728Z,4.90
2023-02-21T18:34:04.702Z,4.10
2023-02-21T18:36:33.466Z,4.50
2023-02-21T18:39:01.217Z,4.90
2023-02-21T18:41:27.774Z,4.70
2023-02-21T18:46:21.489Z,5.00
2023-02-21T18:48:49.736Z,5.30
2023-02-21T18:51:19.391Z,5.30
2023-02-21T18:53:47.886Z,5.40
2023-02-21T18:56:16.732Z,4.90
2023-02-21T18:58:43.329Z,5.90
2023-02-21T19:01:14.405Z,5.20
2023-02-21T19:03:41.668Z,5.40
2023-02-21T19:06:11.336Z,5.30
2023-02-21T19:08:37.962Z,5.60
2023-02-21T19:13:31.082Z,5.50
2023-02-21T19:15:59.373Z,5.90
2023-02-21T19:18:28.188Z,5.80
2023-02-21T19:20:54.808Z,6.50
2023-02-21T19:23:21.533Z,6.50
2023-02-21T19:28:15.067Z,5.80
2023-02-21T19:33:11.349Z,5.40
2023-02-21T19:35:39.109Z,5.10
2023-02-21T19:38:07.411Z,4.50
2023-02-21T19:40:35.190Z,5.80
2023-02-21T19:43:02.343Z,9.20
2023-02-21T19:45:29.406Z,8.70
2023-02-21T19:47:55.959Z,5.20
2023-02-21T19:50:22.818Z,5.80
2023-02-21T19:55:20.712Z,4.50
2023-02-21T19:57:47.441Z,4.80
2023-02-21T20:00:14.867Z,9.10
2023-02-21T20:02:43.949Z,5.20
2023-02-21T20:05:13.320Z,5.40
2023-02-21T20:07:40.644Z,5.00
2023-02-21T20:10:08.457Z,5.60
2023-02-21T20:12:35.352Z,5.00
2023-02-21T20:15:02.953Z,5.80
2023-02-21T20:17:30.074Z,4.80
2023-02-21T20:19:56.516Z,5.40
2023-02-21T20:22:23.354Z,5.70
2023-02-21T20:24:50.177Z,5.60
2023-02-21T20:27:17.143Z,4.90
2023-02-21T20:29:43.686Z,5.50
2023-02-21T20:32:10.470Z,5.50
2023-02-21T20:34:38.782Z,5.80
2023-02-21T20:37:06.177Z,5.50
2023-02-21T20:39:32.748Z,6.10
2023-02-21T20:42:01.248Z,4.80
2023-02-21T20:44:36.476Z,4.60
2023-02-21T20:47:04.934Z,4.80
2023-02-21T20:49:34.583Z,5.30
2023-02-21T20:52:01.492Z,4.60
2023-02-21T20:54:28.023Z,4.50
2023-02-21T20:56:56.368Z,4.60
2023-02-21T20:59:31.732Z,4.80
2023-02-21T21:01:59.086Z,4.40
2023-02-21T21:04:28.670Z,5.10
2023-02-21T21:07:01.167Z,5.00
2023-02-21T21:09:28.250Z,4.50
2023-02-21T21:12:00.098Z,4.80
2023-02-21T21:14:28.270Z,4.80
2023-02-21T21:16:56.395Z,4.70
2023-02-21T21:19:26.067Z,4.20
2023-02-21T21:21:53.267Z,4.30
2023-02-21T21:24:20.722Z,4.30
2023-02-21T21:26:52.507Z,4.30
2023-02-21T21:29:23.557Z,4.90
2023-02-21T21:31:52.966Z,4.00
2023-02-21T21:34:22.467Z,4.60
2023-02-21T21:36:50.930Z,4.90
2023-02-21T21:39:22.052Z,4.40
2023-02-21T21:41:58.313Z,4.80
2023-02-21T21:44:26.500Z,4.30
2023-02-21T21:46:53.797Z,4.80
2023-02-21T21:49:22.748Z,5.10
2023-02-21T21:51:49.557Z,4.10
2023-02-21T21:54:20.097Z,4.90
2023-02-21T21:56:47.957Z,5.70
2023-02-21T21:59:20.137Z,5.30
2023-02-21T22:01:47.240Z,4.50
2023-02-21T22:04:14.053Z,4.60
2023-02-21T22:09:08.642Z,4.80
2023-02-21T22:11:36.041Z,4.60
2023-02-21T22:14:03.028Z,4.50
2023-02-21T22:16:37.629Z,4.10
2023-02-21T22:19:04.322Z,5.10
2023-02-21T22:21:31.311Z,4.50
2023-02-21T22:23:58.254Z,4.90
2023-02-21T22:26:26.488Z,4.30
2023-02-21T22:28:53.464Z,4.40
2023-02-21T22:31:22.553Z,5.00
2023-02-21T22:33:49.139Z,5.40
2023-02-21T22:36:17.603Z,3.90
2023-02-21T22:38:51.013Z,5.10
2023-02-21T22:41:22.958Z,5.30
2023-02-21T22:43:50.073Z,4.90
2023-02-21T22:46:17.523Z,5.90
2023-02-21T22:48:44.700Z,5.90
2023-02-21T22:51:12.346Z,5.40
2023-02-21T22:53:39.142Z,5.80
2023-02-21T22:56:09.251Z,6.00
2023-02-21T22:58:36.537Z,6.20
2023-02-21T23:01:07.937Z,6.20
2023-02-21T23:03:35.078Z,5.80
2023-02-21T23:06:01.910Z,6.50
2023-02-21T23:08:29.117Z,6.40
2023-02-21T23:10:56.175Z,6.00
2023-02-21T23:13:24.083Z,6.50
2023-02-21T23:15:51.252Z,6.00
2023-02-21T23:18:22.520Z,7.20
2023-02-21T23:20:53.341Z,6.80
2023-02-21T23:23:25.332Z,5.80
2023-02-21T23:25:53.611Z,7.20
2023-02-21T23:28:20.086Z,6.20
2023-02-21T23:30:49.002Z,6.70
2023-02-21T23:33:29.750Z,6.10
2023-02-21T23:35:57.182Z,7.10
2023-02-21T23:38:27.393Z,7.40
2023-02-21T23:40:55.758Z,6.20
2023-02-21T23:43:28.557Z,7.30
2023-02-21T23:48:25.339Z,6.60
2023-02-21T23:50:57.094Z,7.40
2023-02-21T23:53:26.123Z,6.00
2023-02-21T23:55:57.074Z,7.20
2023-02-21T23:58:25.348Z,7.30
